Alexandria, KY (41001)

12:10 AM EDT on August 23, 2014 (GMT -0400)
Claryville | Change Station
CLOSE
Current Station
Personal Weather Station
Location: Alexandria, KY
Elevation: 680 ft
Nearby Weather Stations

Elev 680 ft 38.91 °N, 84.41 °W | Updated 421 days ago

Fog
Fog
73 °F
Feels Like 73 °F
N
2
Wind Variable Wind from WSW
Gusts 7 mph

Today
High -- | Low -- °F
--% Chance of Precip.
Yesterday
High -- | Low -- °F
Precip. -- in
6:58 AM 8:21 PM
Waning Crescent, 5% visible
Pressure 29.99 in
Visibility 5.0 miles
Clouds Mostly Cloudy 4900 ft
Dew Point 72 °F
Humidity 92%
Rainfall 195.10 in
Snow Depth Not available.
UV 0 out of 12
Pollen 10.10 out of 12
Air Quality Not available.
Flu Activity Not available.
METAR KLUK 230353Z AUTO 00000KT 5SM BR BKN049 22/22 A3001 RMK AO2 SLP156 T02220222

More Conditions Fewer Conditions

Pressure 29.99 in
Visibility 5.0 miles
Clouds Mostly Cloudy 4900 ft
Dew Point 72 °F
Humidity 92%
Rainfall 195.10 in
Snow Depth Not available.
UV 0 out of 12
Pollen 10.10 out of 12
Air Quality Not available.
Flu Activity Not available.
METAR KLUK 230353Z AUTO 00000KT 5SM BR BKN049 22/22 A3001 RMK AO2 SLP156 T02220222

More Conditions Fewer Conditions

10-Day Weather Forecast

Almanac

Astronomy

Aug. 23, 2014 Rise Set
Actual Time 6:58 AM EDT 8:21 PM EDT
Civil Twilight 6:30 AM EDT 8:49 PM EDT
Nautical Twilight 5:57 AM EDT 9:22 PM EDT
Astronomical Twilight 5:21 AM EDT 9:57 PM EDT
Moon 5:14 AM EDT 7:05 PM EDT
Length of Visible Light 14h 18m
Length of Day
13h 22m
Tomorrow will be 2m 20s shorter.
Waning Crescent, 5% of the Moon is Illuminated
Today
Waning Crescent
Aug 25
New
Sep 2
First Quarter
Sep 8
Full
Sep 15
Last Quarter

Yesterday's Extremes

State Highs State Lows

Community

WunderPhotos

Upload Photos

1,746,358 photos uploaded!

WunderBlogs® & News

Nearby

Snow Depth

Station Depth Elevation
No new snow has been reported.

Earthquake Activity

City Distance Mag. Time & Date
No recent earthquake activity has been reported nearby.
Minimum magnitude displayed is 2.5.

Coastal Water Temperatures

Place Temperature
No Stations Reporting

Nearby Weather Stations